Time;durP1;ratioP1;P1;durP2;ratioP2;P2;SDS_P1;SDS_P2;PMS_P1;PMS_P2;Temp;Humidity;BMP_temperature;BMP_pressure;BME280_temperature;BME280_humidity;BME280_pressure;Samples;Min_cycle;Max_cycle;Signal;HPM_P1;HPM_P2
2020/12/19 00:01:45;;;;;;;36.03;15.30;;;;;;;;;;5083592;28;20027;-61
2020/12/19 00:04:11;;;;;;;32.90;15.32;;;;;;;;;;5078403;28;20070;-62
2020/12/19 00:06:37;;;;;;;37.53;16.30;;;;;;;;;;5090638;28;20024;-61
2020/12/19 00:09:03;;;;;;;41.95;17.95;;;;;;;;;;5085741;28;20050;-60
2020/12/19 00:11:29;;;;;;;37.92;16.77;;;;;;;;;;5075728;28;20028;-61
2020/12/19 00:13:55;;;;;;;37.63;15.88;;;;;;;;;;5075364;28;20036;-62
2020/12/19 00:16:21;;;;;;;36.70;16.38;;;;;;;;;;5087611;28;20049;-59
2020/12/19 00:18:47;;;;;;;35.05;17.42;;;;;;;;;;5089234;28;20029;-61
2020/12/19 00:21:13;;;;;;;34.55;17.20;;;;;;;;;;5067182;28;20021;-62
2020/12/19 00:23:39;;;;;;;35.83;16.85;;;;;;;;;;5085021;28;20024;-62
2020/12/19 00:26:05;;;;;;;34.78;16.70;;;;;;;;;;5084281;28;20092;-61
2020/12/19 00:28:31;;;;;;;39.33;17.15;;;;;;;;;;5069817;28;20029;-60
2020/12/19 00:30:57;;;;;;;39.97;17.23;;;;;;;;;;5063244;28;20032;-62
2020/12/19 00:33:23;;;;;;;33.55;16.60;;;;;;;;;;5086065;28;20032;-60
2020/12/19 00:35:49;;;;;;;36.92;15.90;;;;;;;;;;5082714;28;20054;-61
2020/12/19 00:38:15;;;;;;;40.05;16.92;;;;;;;;;;5078492;28;20463;-61
2020/12/19 00:40:41;;;;;;;39.80;18.17;;;;;;;;;;5071887;28;20028;-60
2020/12/19 00:43:07;;;;;;;40.53;18.50;;;;;;;;;;5073741;28;20030;-59
2020/12/19 00:45:33;;;;;;;37.83;16.35;;;;;;;;;;5082392;28;20135;-61
2020/12/19 00:47:59;;;;;;;38.67;16.17;;;;;;;;;;5087525;28;20032;-61
2020/12/19 00:50:25;;;;;;;34.42;16.20;;;;;;;;;;5080140;28;20031;-60
2020/12/19 00:52:51;;;;;;;36.70;16.60;;;;;;;;;;5084713;28;20065;-58
2020/12/19 00:55:17;;;;;;;35.17;17.23;;;;;;;;;;5071297;28;20082;-61
2020/12/19 00:57:43;;;;;;;36.95;16.95;;;;;;;;;;5086959;28;20487;-61
2020/12/19 01:00:10;;;;;;;35.97;17.77;;;;;;;;;;5089358;28;20661;-61
2020/12/19 01:02:36;;;;;;;45.65;17.70;;;;;;;;;;5073739;28;20026;-60
2020/12/19 01:05:04;;;;;;;40.47;16.80;;;;;;;;;;5080855;28;20079;-61
2020/12/19 01:07:30;;;;;;;42.00;18.35;;;;;;;;;;5089351;28;20024;-61
2020/12/19 01:09:57;;;;;;;39.03;17.73;;;;;;;;;;5088563;28;20028;-61
2020/12/19 01:12:23;;;;;;;37.17;17.58;;;;;;;;;;5076677;28;20081;-61
2020/12/19 01:14:48;;;;;;;40.60;17.75;;;;;;;;;;5079487;28;20027;-62
2020/12/19 01:17:14;;;;;;;37.65;17.92;;;;;;;;;;5085510;28;20047;-62
2020/12/19 01:19:40;;;;;;;48.05;20.33;;;;;;;;;;5059286;28;20045;-59
2020/12/19 01:22:06;;;;;;;47.03;18.80;;;;;;;;;;5081510;28;20035;-62
2020/12/19 01:24:32;;;;;;;39.83;16.75;;;;;;;;;;5085638;28;20016;-62
2020/12/19 01:26:58;;;;;;;40.53;19.55;;;;;;;;;;5077234;28;20020;-62
2020/12/19 01:29:24;;;;;;;44.08;19.42;;;;;;;;;;5079940;28;20673;-62
2020/12/19 01:31:50;;;;;;;46.20;19.55;;;;;;;;;;5088353;28;20051;-61
2020/12/19 01:34:17;;;;;;;40.70;18.17;;;;;;;;;;5075668;28;20020;-62
2020/12/19 01:36:43;;;;;;;42.40;18.42;;;;;;;;;;5072891;28;20471;-61
2020/12/19 01:39:09;;;;;;;38.20;17.90;;;;;;;;;;5088542;28;20078;-62
2020/12/19 01:41:35;;;;;;;36.47;17.98;;;;;;;;;;5076849;28;20040;-62
2020/12/19 01:44:03;;;;;;;42.08;18.13;;;;;;;;;;5078537;28;20024;-61
2020/12/19 01:46:32;;;;;;;43.10;20.60;;;;;;;;;;5088115;28;20432;-62
2020/12/19 01:48:59;;;;;;;44.10;20.58;;;;;;;;;;5088849;28;20031;-62
2020/12/19 01:51:28;;;;;;;40.80;18.35;;;;;;;;;;5080745;28;20031;-62
2020/12/19 01:53:54;;;;;;;35.95;18.35;;;;;;;;;;5077772;28;20024;-60
2020/12/19 01:56:47;;;;;;;42.15;19.50;;;;;;;;;;5058985;28;20032;-62
2020/12/19 01:59:13;;;;;;;33.67;15.00;;;;;;;;;;5072469;28;20528;-62
2020/12/19 02:01:46;;;;;;;37.45;18.08;;;;;;;;;;5087619;28;20032;-61
2020/12/19 02:04:12;;;;;;;36.70;17.60;;;;;;;;;;5084069;28;20552;-62
2020/12/19 02:06:38;;;;;;;38.55;19.02;;;;;;;;;;5072149;28;20094;-61
2020/12/19 02:09:05;;;;;;;35.03;17.02;;;;;;;;;;5079807;28;20491;-62
2020/12/19 02:11:31;;;;;;;43.97;20.13;;;;;;;;;;5088391;28;20154;-62
2020/12/19 02:13:57;;;;;;;39.72;19.15;;;;;;;;;;5080644;28;20028;-62
2020/12/19 02:16:23;;;;;;;38.95;18.42;;;;;;;;;;5082042;28;20042;-62
2020/12/19 02:18:49;;;;;;;43.33;18.55;;;;;;;;;;5082413;28;20055;-62
2020/12/19 02:21:15;;;;;;;46.80;20.15;;;;;;;;;;5068853;28;20400;-62
2020/12/19 02:23:41;;;;;;;41.30;18.52;;;;;;;;;;5083935;28;20072;-62
2020/12/19 02:26:07;;;;;;;47.13;19.67;;;;;;;;;;5083616;28;20020;-62
2020/12/19 02:28:33;;;;;;;40.58;18.58;;;;;;;;;;5083361;28;20023;-61
2020/12/19 02:30:59;;;;;;;39.85;19.10;;;;;;;;;;5075094;28;20702;-61
2020/12/19 02:33:25;;;;;;;42.90;18.30;;;;;;;;;;5068613;28;20044;-62
2020/12/19 02:35:51;;;;;;;47.92;21.77;;;;;;;;;;5056008;28;20055;-62
2020/12/19 02:38:17;;;;;;;43.05;19.17;;;;;;;;;;5059434;28;20111;-62
2020/12/19 02:40:43;;;;;;;44.72;19.40;;;;;;;;;;5088061;28;20419;-61
2020/12/19 02:43:09;;;;;;;38.75;19.00;;;;;;;;;;5087444;28;20036;-61
2020/12/19 02:45:35;;;;;;;44.30;20.42;;;;;;;;;;5068582;28;20028;-62
2020/12/19 02:48:01;;;;;;;44.53;20.25;;;;;;;;;;5078834;28;20035;-61
2020/12/19 02:50:27;;;;;;;46.38;21.02;;;;;;;;;;5067967;28;20032;-62
2020/12/19 02:52:53;;;;;;;38.80;19.02;;;;;;;;;;5068410;28;20069;-62
2020/12/19 02:55:19;;;;;;;42.80;19.05;;;;;;;;;;5068623;28;20039;-62
2020/12/19 02:57:45;;;;;;;39.92;18.45;;;;;;;;;;5073235;28;20075;-62
2020/12/19 03:00:10;;;;;;;45.22;18.73;;;;;;;;;;5079210;28;20044;-62
2020/12/19 03:02:36;;;;;;;43.28;18.20;;;;;;;;;;5086635;28;20023;-61
2020/12/19 03:05:02;;;;;;;41.10;19.30;;;;;;;;;;5081686;28;20023;-62
2020/12/19 03:07:28;;;;;;;42.15;19.85;;;;;;;;;;5082060;28;20032;-62
2020/12/19 03:09:54;;;;;;;43.42;19.08;;;;;;;;;;5074341;28;20036;-60
2020/12/19 03:12:20;;;;;;;43.40;19.58;;;;;;;;;;5085664;28;20020;-62
2020/12/19 03:14:46;;;;;;;41.85;19.33;;;;;;;;;;5079600;28;20031;-62
2020/12/19 03:17:12;;;;;;;40.67;17.58;;;;;;;;;;5086142;28;20077;-61
2020/12/19 03:19:38;;;;;;;48.58;18.98;;;;;;;;;;5086334;28;20035;-61
2020/12/19 03:22:04;;;;;;;40.70;19.33;;;;;;;;;;5069611;28;20036;-61
2020/12/19 03:24:30;;;;;;;38.90;18.58;;;;;;;;;;5077262;28;20402;-62
2020/12/19 03:26:56;;;;;;;45.50;19.85;;;;;;;;;;5079498;28;20464;-62
2020/12/19 03:29:22;;;;;;;38.30;18.65;;;;;;;;;;5070196;28;20029;-62
2020/12/19 03:31:48;;;;;;;41.13;18.70;;;;;;;;;;5085303;28;20398;-62
2020/12/19 03:34:14;;;;;;;43.35;19.20;;;;;;;;;;5080434;28;20020;-62
2020/12/19 03:36:40;;;;;;;39.65;18.92;;;;;;;;;;5078145;28;20036;-62
2020/12/19 03:39:06;;;;;;;43.28;19.85;;;;;;;;;;5079125;28;20036;-60
2020/12/19 03:41:32;;;;;;;41.45;20.15;;;;;;;;;;5076216;28;20491;-62
2020/12/19 03:43:58;;;;;;;45.47;19.23;;;;;;;;;;5087369;28;20394;-62
2020/12/19 03:46:24;;;;;;;42.15;18.73;;;;;;;;;;5082785;28;20021;-62
2020/12/19 03:48:49;;;;;;;39.75;19.23;;;;;;;;;;5076507;28;20025;-61
2020/12/19 03:51:15;;;;;;;41.28;19.38;;;;;;;;;;5080593;28;20031;-62
2020/12/19 03:53:41;;;;;;;41.95;19.10;;;;;;;;;;5080871;28;20020;-61
2020/12/19 03:56:08;;;;;;;45.67;19.25;;;;;;;;;;5086540;28;20034;-61
2020/12/19 03:58:34;;;;;;;40.22;19.52;;;;;;;;;;5072377;28;20071;-62
2020/12/19 04:00:59;;;;;;;35.88;16.90;;;;;;;;;;5085665;28;20361;-62
2020/12/19 04:03:25;;;;;;;37.95;18.00;;;;;;;;;;5086165;28;20061;-62
2020/12/19 04:05:51;;;;;;;36.15;18.90;;;;;;;;;;5086738;28;20024;-62
2020/12/19 04:08:17;;;;;;;39.65;18.85;;;;;;;;;;5083228;28;20027;-62
2020/12/19 04:10:43;;;;;;;40.78;18.63;;;;;;;;;;5086813;28;20085;-61
2020/12/19 04:13:09;;;;;;;40.65;19.17;;;;;;;;;;5073474;28;20029;-62
2020/12/19 04:15:35;;;;;;;40.42;19.02;;;;;;;;;;5085714;28;20043;-62
2020/12/19 04:18:01;;;;;;;44.13;20.15;;;;;;;;;;5083916;28;20634;-61
2020/12/19 04:20:27;;;;;;;42.90;18.73;;;;;;;;;;5082180;28;20530;-61
2020/12/19 04:22:53;;;;;;;41.85;19.30;;;;;;;;;;5078102;28;20078;-61
2020/12/19 04:25:19;;;;;;;38.22;18.23;;;;;;;;;;5070841;28;20070;-62
2020/12/19 04:27:45;;;;;;;44.97;20.35;;;;;;;;;;5086593;28;20028;-62
2020/12/19 04:30:11;;;;;;;40.13;17.77;;;;;;;;;;5067214;28;20166;-62
2020/12/19 04:32:37;;;;;;;36.58;17.90;;;;;;;;;;5050157;28;20463;-60
2020/12/19 04:35:04;;;;;;;42.22;18.05;;;;;;;;;;5080739;28;20028;-61
2020/12/19 04:37:30;;;;;;;42.33;19.10;;;;;;;;;;5084564;28;20449;-62
2020/12/19 04:39:56;;;;;;;44.47;19.50;;;;;;;;;;5061815;28;20061;-60
2020/12/19 04:42:22;;;;;;;39.05;18.75;;;;;;;;;;5082275;28;20028;-62
2020/12/19 04:44:49;;;;;;;36.08;18.25;;;;;;;;;;5090038;28;20371;-62
2020/12/19 04:47:15;;;;;;;40.00;17.83;;;;;;;;;;5089430;28;20031;-62
2020/12/19 04:49:43;;;;;;;45.97;18.48;;;;;;;;;;5076937;28;20515;-61
2020/12/19 04:52:09;;;;;;;42.97;20.13;;;;;;;;;;5082599;28;20023;-62
2020/12/19 04:54:38;;;;;;;38.75;18.85;;;;;;;;;;5075839;28;20081;-62
2020/12/19 04:57:04;;;;;;;41.10;18.20;;;;;;;;;;5083390;28;20028;-62
2020/12/19 04:59:30;;;;;;;42.03;18.08;;;;;;;;;;5089363;28;20376;-61
2020/12/19 05:01:57;;;;;;;40.72;17.67;;;;;;;;;;5084597;28;20387;-62
2020/12/19 05:04:24;;;;;;;36.58;18.13;;;;;;;;;;5085156;28;20518;-62
2020/12/19 05:06:50;;;;;;;38.78;18.38;;;;;;;;;;5075911;28;20543;-60
2020/12/19 05:09:16;;;;;;;38.80;18.73;;;;;;;;;;5088296;28;20031;-62
2020/12/19 05:11:42;;;;;;;45.50;19.38;;;;;;;;;;5078747;28;20036;-61
2020/12/19 05:14:08;;;;;;;35.85;16.73;;;;;;;;;;5079172;28;20035;-62
2020/12/19 05:16:35;;;;;;;39.58;17.98;;;;;;;;;;5089408;28;20028;-61
2020/12/19 05:19:10;;;;;;;38.28;17.38;;;;;;;;;;5078091;28;20024;-61
2020/12/19 05:21:43;;;;;;;37.28;17.85;;;;;;;;;;5075515;28;20032;-62
2020/12/19 05:24:10;;;;;;;31.85;16.83;;;;;;;;;;5080759;28;20471;-61
2020/12/19 05:26:37;;;;;;;36.30;17.23;;;;;;;;;;5088780;28;20046;-61
2020/12/19 05:29:04;;;;;;;38.88;17.15;;;;;;;;;;5084268;28;20130;-61
2020/12/19 05:31:33;;;;;;;37.80;17.60;;;;;;;;;;5066346;28;20037;-62
2020/12/19 05:33:59;;;;;;;33.10;16.52;;;;;;;;;;5086002;28;20024;-64
2020/12/19 05:36:28;;;;;;;35.63;15.77;;;;;;;;;;5081175;28;20416;-64
2020/12/19 05:38:58;;;;;;;35.60;16.73;;;;;;;;;;5069260;28;20472;-64
2020/12/19 05:41:24;;;;;;;38.63;17.55;;;;;;;;;;5085074;28;20028;-64
2020/12/19 05:43:51;;;;;;;31.90;15.43;;;;;;;;;;5071211;28;20024;-64
2020/12/19 05:46:27;;;;;;;32.83;15.88;;;;;;;;;;5084856;28;20035;-64
2020/12/19 05:48:53;;;;;;;36.25;17.20;;;;;;;;;;5088436;28;20024;-64
2020/12/19 05:51:20;;;;;;;43.25;18.60;;;;;;;;;;5089608;28;20379;-64
2020/12/19 05:53:46;;;;;;;37.97;17.88;;;;;;;;;;5075951;28;20029;-64
2020/12/19 05:56:12;;;;;;;43.03;18.42;;;;;;;;;;5083122;28;20740;-64
2020/12/19 05:58:38;;;;;;;36.13;17.90;;;;;;;;;;5077496;28;20126;-64
2020/12/19 06:01:07;;;;;;;37.67;16.20;;;;;;;;;;5087318;28;20046;-64
2020/12/19 06:03:33;;;;;;;32.13;14.95;;;;;;;;;;5085319;28;20051;-64
2020/12/19 06:05:59;;;;;;;36.67;14.80;;;;;;;;;;5087915;28;20024;-63
2020/12/19 06:08:25;;;;;;;32.47;15.27;;;;;;;;;;5074197;28;20418;-64
2020/12/19 06:10:53;;;;;;;34.05;16.38;;;;;;;;;;5087749;28;20016;-64
2020/12/19 06:13:21;;;;;;;35.15;15.50;;;;;;;;;;5080676;28;20031;-64
2020/12/19 06:16:00;;;;;;;32.03;15.27;;;;;;;;;;5076746;28;20044;-63
2020/12/19 06:18:46;;;;;;;29.52;14.55;;;;;;;;;;5079932;28;20040;-63
2020/12/19 06:21:13;;;;;;;36.78;16.08;;;;;;;;;;5062001;28;20033;-63
2020/12/19 06:23:39;;;;;;;32.60;15.10;;;;;;;;;;5081464;28;20356;-63
2020/12/19 06:26:05;;;;;;;33.42;16.00;;;;;;;;;;5083114;28;20028;-63
2020/12/19 06:28:43;;;;;;;33.67;16.30;;;;;;;;;;5083624;28;20128;-63
2020/12/19 06:31:09;;;;;;;30.33;15.80;;;;;;;;;;5080844;28;20024;-63
2020/12/19 06:33:35;;;;;;;33.28;15.90;;;;;;;;;;5076984;28;20086;-63
2020/12/19 06:36:16;;;;;;;36.22;16.00;;;;;;;;;;5069345;28;20032;-63
2020/12/19 06:38:43;;;;;;;33.58;15.75;;;;;;;;;;5056533;28;20353;-63
2020/12/19 06:41:09;;;;;;;35.15;14.40;;;;;;;;;;5083099;28;20110;-64
2020/12/19 06:43:35;;;;;;;35.75;16.65;;;;;;;;;;5086106;28;20056;-63
2020/12/19 06:46:01;;;;;;;33.13;16.70;;;;;;;;;;5079459;28;20032;-63
2020/12/19 06:48:31;;;;;;;36.65;16.95;;;;;;;;;;5085106;28;20024;-63
2020/12/19 06:51:04;;;;;;;42.00;18.05;;;;;;;;;;5073180;28;20045;-63
2020/12/19 06:53:31;;;;;;;37.20;16.83;;;;;;;;;;5076141;28;20074;-64
2020/12/19 06:56:00;;;;;;;36.63;17.02;;;;;;;;;;5085104;28;20031;-64
2020/12/19 06:58:27;;;;;;;37.38;16.75;;;;;;;;;;5075866;28;20028;-63
2020/12/19 07:00:53;;;;;;;35.70;17.65;;;;;;;;;;5083994;28;20039;-63
2020/12/19 07:03:34;;;;;;;38.22;16.55;;;;;;;;;;5087207;28;20039;-63
2020/12/19 07:06:16;;;;;;;35.10;16.08;;;;;;;;;;5076651;28;20062;-63
2020/12/19 07:08:42;;;;;;;34.13;18.10;;;;;;;;;;5078095;28;20035;-63
2020/12/19 07:11:12;;;;;;;36.72;16.80;;;;;;;;;;5083961;28;20123;-63
2020/12/19 07:13:55;;;;;;;38.47;17.55;;;;;;;;;;5079798;28;20027;-63
2020/12/19 07:16:50;;;;;;;31.27;14.00;;;;;;;;;;5087094;28;20521;-63
2020/12/19 07:19:28;;;;;;;38.65;17.20;;;;;;;;;;5051211;28;20086;-63
2020/12/19 07:21:56;;;;;;;38.88;17.90;;;;;;;;;;5068960;28;20028;-64
2020/12/19 07:24:22;;;;;;;42.30;18.13;;;;;;;;;;5054714;28;20036;-64
2020/12/19 07:26:49;;;;;;;45.38;19.73;;;;;;;;;;5082182;28;20066;-63
2020/12/19 07:29:16;;;;;;;45.40;18.20;;;;;;;;;;5066573;28;20017;-63
2020/12/19 07:31:43;;;;;;;40.17;17.65;;;;;;;;;;5076623;28;20062;-63
2020/12/19 07:34:09;;;;;;;48.70;21.88;;;;;;;;;;5086668;28;20024;-63
2020/12/19 07:36:36;;;;;;;35.78;15.88;;;;;;;;;;5086746;28;20034;-63
2020/12/19 07:39:02;;;;;;;39.70;17.73;;;;;;;;;;5069999;28;20038;-63
2020/12/19 07:41:28;;;;;;;36.78;17.30;;;;;;;;;;5059011;28;20035;-63
2020/12/19 07:43:54;;;;;;;37.75;17.15;;;;;;;;;;5056160;28;20032;-63
2020/12/19 07:46:20;;;;;;;38.90;17.98;;;;;;;;;;5067886;28;20017;-63
2020/12/19 07:48:53;;;;;;;35.15;17.38;;;;;;;;;;5084613;28;20024;-63
2020/12/19 07:51:22;;;;;;;35.47;17.13;;;;;;;;;;5079386;28;20028;-64
2020/12/19 07:53:48;;;;;;;35.42;18.40;;;;;;;;;;5079663;28;20036;-63
2020/12/19 07:56:14;;;;;;;36.78;17.83;;;;;;;;;;5064952;28;20028;-63
2020/12/19 07:58:40;;;;;;;35.95;17.35;;;;;;;;;;5068369;28;20043;-63
2020/12/19 08:01:06;;;;;;;39.08;16.98;;;;;;;;;;5068460;28;20059;-63
2020/12/19 08:03:32;;;;;;;35.80;17.02;;;;;;;;;;5078356;28;20041;-63
2020/12/19 08:05:58;;;;;;;37.92;16.70;;;;;;;;;;5085056;28;20016;-63
2020/12/19 08:08:24;;;;;;;33.90;15.57;;;;;;;;;;5079573;28;20024;-63
2020/12/19 08:10:50;;;;;;;34.08;16.27;;;;;;;;;;5073632;28;20033;-63
2020/12/19 08:13:16;;;;;;;34.95;16.90;;;;;;;;;;5078966;28;20035;-63
2020/12/19 08:15:42;;;;;;;31.85;16.23;;;;;;;;;;5061922;28;20116;-63
2020/12/19 08:18:09;;;;;;;31.67;15.60;;;;;;;;;;5086263;28;20110;-63
2020/12/19 08:20:36;;;;;;;35.80;15.98;;;;;;;;;;5071043;28;20120;-63
2020/12/19 08:23:09;;;;;;;37.20;15.98;;;;;;;;;;5077953;28;20102;-63
2020/12/19 08:25:38;;;;;;;39.30;16.80;;;;;;;;;;5084193;28;20055;-63
2020/12/19 08:28:04;;;;;;;29.50;14.43;;;;;;;;;;5057583;28;20036;-63
2020/12/19 08:30:31;;;;;;;34.35;16.25;;;;;;;;;;5075495;28;20092;-63
2020/12/19 08:33:10;;;;;;;31.20;14.77;;;;;;;;;;5078558;28;20643;-63
2020/12/19 08:35:43;;;;;;;29.27;14.70;;;;;;;;;;5072302;28;20379;-63
2020/12/19 08:38:09;;;;;;;31.13;14.50;;;;;;;;;;5058366;28;20028;-63
2020/12/19 08:41:02;;;;;;;31.73;14.25;;;;;;;;;;5090458;28;20032;-63
2020/12/19 08:43:32;;;;;;;31.50;14.23;;;;;;;;;;5086070;28;20032;-63
2020/12/19 08:46:07;;;;;;;32.58;15.65;;;;;;;;;;5069423;28;20263;-63
2020/12/19 08:48:33;;;;;;;35.50;18.80;;;;;;;;;;5086979;28;20032;-63
2020/12/19 08:51:07;;;;;;;27.65;14.27;;;;;;;;;;5084040;28;20492;-63
2020/12/19 08:53:33;;;;;;;58.80;37.45;;;;;;;;;;5077584;28;20499;-63
2020/12/19 08:56:12;;;;;;;40.03;24.55;;;;;;;;;;5069448;28;20074;-63
2020/12/19 08:58:38;;;;;;;30.13;14.05;;;;;;;;;;5071109;28;20024;-63
2020/12/19 09:01:14;;;;;;;42.33;28.90;;;;;;;;;;5076048;28;20016;-63
2020/12/19 09:03:40;;;;;;;29.60;14.32;;;;;;;;;;5070072;28;20040;-63
2020/12/19 09:06:07;;;;;;;37.47;17.92;;;;;;;;;;5069648;28;20119;-63
2020/12/19 09:08:51;;;;;;;59.35;30.20;;;;;;;;;;5073580;28;20029;-63
2020/12/19 09:11:27;;;;;;;62.50;35.10;;;;;;;;;;5067293;28;20051;-63
2020/12/19 09:14:06;;;;;;;50.80;34.38;;;;;;;;;;5068607;28;20028;-63
2020/12/19 09:16:35;;;;;;;27.23;13.88;;;;;;;;;;5081080;28;20153;-63
2020/12/19 09:19:03;;;;;;;27.13;15.30;;;;;;;;;;5067575;28;20024;-63
2020/12/19 09:21:29;;;;;;;24.08;13.23;;;;;;;;;;5081898;28;20033;-63
2020/12/19 09:23:55;;;;;;;27.00;14.50;;;;;;;;;;5078787;28;20054;-63
2020/12/19 09:26:21;;;;;;;28.92;14.90;;;;;;;;;;5077717;28;20016;-63
2020/12/19 09:28:46;;;;;;;28.60;15.05;;;;;;;;;;5084298;28;20028;-63
2020/12/19 09:31:12;;;;;;;24.10;13.43;;;;;;;;;;5083476;28;20026;-62
2020/12/19 09:33:38;;;;;;;25.70;13.15;;;;;;;;;;5068573;28;20078;-63
2020/12/19 09:36:04;;;;;;;24.23;12.15;;;;;;;;;;5068179;28;20074;-62
2020/12/19 09:38:30;;;;;;;24.77;12.45;;;;;;;;;;5064860;28;20017;-63
2020/12/19 09:40:56;;;;;;;20.05;11.73;;;;;;;;;;5056715;28;20088;-63
2020/12/19 09:43:22;;;;;;;22.40;11.18;;;;;;;;;;5071264;28;20055;-63
2020/12/19 09:45:48;;;;;;;20.90;11.45;;;;;;;;;;5077374;28;20032;-63
2020/12/19 09:48:14;;;;;;;20.63;11.55;;;;;;;;;;5066650;28;20027;-63
2020/12/19 09:50:40;;;;;;;20.90;12.10;;;;;;;;;;5061831;28;20040;-63
2020/12/19 09:53:06;;;;;;;22.63;12.00;;;;;;;;;;5064084;28;20032;-62
2020/12/19 09:55:32;;;;;;;25.55;12.05;;;;;;;;;;5077151;28;20235;-63
2020/12/19 09:57:59;;;;;;;24.15;11.50;;;;;;;;;;5060470;28;20029;-63
2020/12/19 10:00:25;;;;;;;23.67;11.48;;;;;;;;;;5074152;28;20034;-63
2020/12/19 10:02:53;;;;;;;25.23;11.95;;;;;;;;;;5074333;28;20040;-62
2020/12/19 10:05:19;;;;;;;24.08;11.80;;;;;;;;;;5078618;28;20032;-63
2020/12/19 10:07:45;;;;;;;20.52;10.30;;;;;;;;;;5070537;28;20028;-61
2020/12/19 10:10:11;;;;;;;17.15;10.02;;;;;;;;;;5063506;28;20032;-61
2020/12/19 10:12:37;;;;;;;19.70;10.07;;;;;;;;;;5053399;28;20025;-61
2020/12/19 10:15:07;;;;;;;21.00;10.90;;;;;;;;;;5060166;28;20021;-61
2020/12/19 10:17:33;;;;;;;18.05;9.93;;;;;;;;;;5076505;28;20043;-62
2020/12/19 10:19:59;;;;;;;18.33;9.18;;;;;;;;;;5065307;28;20043;-62
2020/12/19 10:22:25;;;;;;;18.05;10.27;;;;;;;;;;5066051;28;20020;-62
2020/12/19 10:24:51;;;;;;;18.00;9.02;;;;;;;;;;5068906;28;20520;-62
2020/12/19 10:27:17;;;;;;;18.00;9.02;;;;;;;;;;5085315;28;20499;-62
2020/12/19 10:29:43;;;;;;;19.85;9.90;;;;;;;;;;5068463;28;20452;-62
2020/12/19 10:32:10;;;;;;;14.32;8.63;;;;;;;;;;5081518;28;20055;-64
2020/12/19 10:34:36;;;;;;;18.27;9.43;;;;;;;;;;5071648;28;20352;-63
2020/12/19 10:37:02;;;;;;;17.88;9.07;;;;;;;;;;5078843;28;20170;-63
2020/12/19 10:39:28;;;;;;;14.68;8.10;;;;;;;;;;5082185;28;20036;-64
2020/12/19 10:41:55;;;;;;;15.73;8.00;;;;;;;;;;5076140;28;20670;-64
2020/12/19 10:44:21;;;;;;;13.27;7.90;;;;;;;;;;5073022;28;20024;-64
2020/12/19 10:46:47;;;;;;;13.85;8.18;;;;;;;;;;5069631;28;20049;-64
2020/12/19 10:49:13;;;;;;;14.10;7.38;;;;;;;;;;5080919;28;20112;-64
2020/12/19 10:51:38;;;;;;;15.55;8.23;;;;;;;;;;5079044;28;20032;-64
2020/12/19 10:54:04;;;;;;;14.80;8.15;;;;;;;;;;5081036;28;20055;-64
2020/12/19 10:56:30;;;;;;;12.02;7.13;;;;;;;;;;5087978;28;20359;-64
2020/12/19 10:58:56;;;;;;;12.20;7.35;;;;;;;;;;5082879;28;20020;-64
2020/12/19 11:01:23;;;;;;;12.45;7.47;;;;;;;;;;5074269;28;20073;-64
2020/12/19 11:03:49;;;;;;;10.93;5.68;;;;;;;;;;5081466;28;20044;-64
2020/12/19 11:06:21;;;;;;;10.35;5.57;;;;;;;;;;5080658;28;20032;-65
2020/12/19 11:08:48;;;;;;;10.35;5.75;;;;;;;;;;5066325;28;20361;-64
2020/12/19 11:11:14;;;;;;;13.15;6.85;;;;;;;;;;5077743;28;20028;-64
2020/12/19 11:13:41;;;;;;;7.10;4.45;;;;;;;;;;5073320;28;20494;-64
2020/12/19 11:16:07;;;;;;;12.68;5.32;;;;;;;;;;5063542;28;20025;-64
2020/12/19 11:18:33;;;;;;;8.98;5.45;;;;;;;;;;5076449;28;20386;-64
2020/12/19 11:20:59;;;;;;;8.13;4.63;;;;;;;;;;5062081;28;20028;-65
2020/12/19 11:23:25;;;;;;;14.73;7.70;;;;;;;;;;5062098;28;20115;-64
2020/12/19 11:25:54;;;;;;;7.30;4.50;;;;;;;;;;5067383;28;20408;-65
2020/12/19 11:28:20;;;;;;;6.25;4.00;;;;;;;;;;5071443;28;20028;-65
2020/12/19 11:30:46;;;;;;;8.35;4.55;;;;;;;;;;5069888;28;20356;-65
2020/12/19 11:33:13;;;;;;;8.82;5.18;;;;;;;;;;5064613;28;20123;-64
2020/12/19 11:35:39;;;;;;;8.15;4.90;;;;;;;;;;5069840;28;20492;-65
2020/12/19 11:38:05;;;;;;;8.27;4.50;;;;;;;;;;5082930;28;20077;-65
2020/12/19 11:40:30;;;;;;;7.45;4.82;;;;;;;;;;5084183;28;20032;-64
2020/12/19 11:42:56;;;;;;;7.38;4.50;;;;;;;;;;5073507;28;20032;-64
2020/12/19 11:45:22;;;;;;;7.90;4.05;;;;;;;;;;5086770;28;20027;-64
2020/12/19 11:47:48;;;;;;;11.27;6.60;;;;;;;;;;5090822;28;20023;-63
2020/12/19 11:50:14;;;;;;;10.50;5.20;;;;;;;;;;5090884;28;20470;-64
2020/12/19 11:52:40;;;;;;;6.88;4.72;;;;;;;;;;5082828;28;20425;-63
2020/12/19 11:55:06;;;;;;;9.30;5.95;;;;;;;;;;5072476;28;20134;-63
2020/12/19 11:57:32;;;;;;;8.70;4.75;;;;;;;;;;5087192;28;20039;-64
2020/12/19 11:59:58;;;;;;;6.68;4.75;;;;;;;;;;5082203;28;20036;-64
2020/12/19 12:02:24;;;;;;;10.10;5.15;;;;;;;;;;5078071;28;20105;-64
2020/12/19 12:04:50;;;;;;;8.32;4.53;;;;;;;;;;5087682;28;20039;-63
2020/12/19 12:07:16;;;;;;;8.52;5.38;;;;;;;;;;5068498;28;20013;-63
2020/12/19 12:09:42;;;;;;;9.95;6.78;;;;;;;;;;5087521;28;20023;-64
2020/12/19 12:12:08;;;;;;;9.07;4.22;;;;;;;;;;5083473;28;20020;-64
2020/12/19 12:14:34;;;;;;;8.70;5.57;;;;;;;;;;5077722;28;20021;-64
2020/12/19 12:17:00;;;;;;;17.65;10.95;;;;;;;;;;5086188;28;20048;-64
2020/12/19 12:19:26;;;;;;;6.90;4.70;;;;;;;;;;5081683;28;20035;-64
2020/12/19 12:21:52;;;;;;;7.05;4.63;;;;;;;;;;5071756;28;20028;-64
2020/12/19 12:24:17;;;;;;;6.70;4.25;;;;;;;;;;5088435;28;20047;-62
2020/12/19 12:26:43;;;;;;;7.40;4.00;;;;;;;;;;5080399;28;20025;-63
2020/12/19 12:29:09;;;;;;;7.13;5.07;;;;;;;;;;5074517;28;20016;-64
2020/12/19 12:31:35;;;;;;;6.18;3.70;;;;;;;;;;5087785;28;20468;-64
2020/12/19 12:34:02;;;;;;;6.15;3.97;;;;;;;;;;5084284;28;20040;-64
2020/12/19 12:36:29;;;;;;;7.68;5.35;;;;;;;;;;5061783;28;20029;-64
2020/12/19 12:38:55;;;;;;;10.77;5.70;;;;;;;;;;5085494;28;20121;-64
2020/12/19 12:41:21;;;;;;;8.13;4.80;;;;;;;;;;5072433;28;20033;-63
2020/12/19 12:43:47;;;;;;;8.50;4.43;;;;;;;;;;5072600;28;20032;-64
2020/12/19 12:46:14;;;;;;;6.65;4.50;;;;;;;;;;5086971;28;20024;-64
2020/12/19 12:48:40;;;;;;;7.00;4.13;;;;;;;;;;5066744;28;20028;-64
2020/12/19 12:51:07;;;;;;;8.15;4.50;;;;;;;;;;5083004;28;20070;-64
2020/12/19 12:53:32;;;;;;;6.93;3.88;;;;;;;;;;5087498;28;20028;-64
2020/12/19 12:55:58;;;;;;;8.18;4.25;;;;;;;;;;5078249;28;20017;-64
2020/12/19 12:58:25;;;;;;;5.82;4.07;;;;;;;;;;5060356;28;20032;-64
2020/12/19 13:00:51;;;;;;;7.13;4.55;;;;;;;;;;5089550;28;20020;-64
2020/12/19 13:03:17;;;;;;;7.97;4.93;;;;;;;;;;5079067;28;20036;-64
2020/12/19 13:05:43;;;;;;;8.70;5.22;;;;;;;;;;5079138;28;20024;-64
2020/12/19 13:08:08;;;;;;;7.72;4.78;;;;;;;;;;5084973;28;20036;-64
2020/12/19 13:10:34;;;;;;;7.97;4.40;;;;;;;;;;5078816;28;20028;-64
2020/12/19 13:13:00;;;;;;;9.50;5.40;;;;;;;;;;5078329;28;20035;-65
2020/12/19 13:15:26;;;;;;;11.18;5.93;;;;;;;;;;5077961;28;20036;-64
2020/12/19 13:17:52;;;;;;;9.02;5.38;;;;;;;;;;5077315;28;20511;-64
2020/12/19 13:20:18;;;;;;;9.15;5.07;;;;;;;;;;5070491;28;20025;-64
2020/12/19 13:22:44;;;;;;;10.93;5.80;;;;;;;;;;5085346;28;20550;-64
2020/12/19 13:25:10;;;;;;;14.48;5.03;;;;;;;;;;5081567;28;20430;-65
2020/12/19 13:27:36;;;;;;;9.48;6.28;;;;;;;;;;5087181;28;20023;-64
2020/12/19 13:30:03;;;;;;;8.07;5.00;;;;;;;;;;5061387;28;20017;-64
2020/12/19 13:32:29;;;;;;;10.43;5.60;;;;;;;;;;5069815;28;20037;-64
2020/12/19 13:34:55;;;;;;;9.82;5.57;;;;;;;;;;5068051;28;20411;-64
2020/12/19 13:37:21;;;;;;;7.55;4.88;;;;;;;;;;5089329;28;20085;-64
2020/12/19 13:39:47;;;;;;;11.27;5.70;;;;;;;;;;5088831;28;20024;-64
2020/12/19 13:42:13;;;;;;;9.60;4.85;;;;;;;;;;5088431;28;20028;-64
2020/12/19 13:44:38;;;;;;;10.15;5.97;;;;;;;;;;5089084;28;20076;-64
2020/12/19 13:47:04;;;;;;;9.35;5.13;;;;;;;;;;5081155;28;20634;-64
2020/12/19 13:49:30;;;;;;;11.02;6.30;;;;;;;;;;5086973;28;20582;-63
2020/12/19 13:51:56;;;;;;;12.65;6.00;;;;;;;;;;5077513;28;20036;-63
2020/12/19 13:54:22;;;;;;;10.35;5.07;;;;;;;;;;5073990;28;20093;-63
2020/12/19 13:56:48;;;;;;;26.83;12.27;;;;;;;;;;5074351;28;20529;-63
2020/12/19 13:59:15;;;;;;;12.65;7.35;;;;;;;;;;5088351;28;20016;-63
2020/12/19 14:01:41;;;;;;;13.98;8.68;;;;;;;;;;5088545;28;20051;-63
2020/12/19 14:04:07;;;;;;;11.95;7.55;;;;;;;;;;5087789;28;20392;-63
2020/12/19 14:06:33;;;;;;;10.27;5.97;;;;;;;;;;5080600;28;20020;-64
2020/12/19 14:08:59;;;;;;;10.48;5.70;;;;;;;;;;5069469;28;20039;-64
2020/12/19 14:11:29;;;;;;;10.93;6.53;;;;;;;;;;5071607;28;20078;-63
2020/12/19 14:13:56;;;;;;;9.90;6.20;;;;;;;;;;5073061;28;20020;-64
2020/12/19 14:16:31;;;;;;;12.10;6.68;;;;;;;;;;5072042;28;20043;-64
2020/12/19 14:18:57;;;;;;;10.20;5.97;;;;;;;;;;5076213;28;20044;-63
2020/12/19 14:21:24;;;;;;;10.10;5.95;;;;;;;;;;5071651;28;20028;-64
2020/12/19 14:23:50;;;;;;;9.30;6.03;;;;;;;;;;5066193;28;20029;-64